sensor_id;sensor_type;location;lat;lon;timestamp;temperature;humidity
56322;DHT22;42227;6.376;-10.782;2023-11-19T00:02:08;27.10;99.90
56322;DHT22;42227;6.376;-10.782;2023-11-19T00:04:37;27.20;1.00
56322;DHT22;42227;6.376;-10.782;2023-11-19T00:07:06;27.20;1.00
56322;DHT22;42227;6.376;-10.782;2023-11-19T00:09:35;27.10;1.00
56322;DHT22;42227;6.376;-10.782;2023-11-19T00:12:04;26.90;9.80
56322;DHT22;42227;6.376;-10.782;2023-11-19T00:14:34;26.90;99.90
56322;DHT22;42227;6.376;-10.782;2023-11-19T00:17:02;26.90;99.90
56322;DHT22;42227;6.376;-10.782;2023-11-19T00:19:31;26.90;99.90
56322;DHT22;42227;6.376;-10.782;2023-11-19T00:21:59;27.10;99.90
56322;DHT22;42227;6.376;-10.782;2023-11-19T00:24:28;27.20;99.90
56322;DHT22;42227;6.376;-10.782;2023-11-19T00:26:57;27.40;1.00
56322;DHT22;42227;6.376;-10.782;2023-11-19T00:29:25;27.20;1.00
56322;DHT22;42227;6.376;-10.782;2023-11-19T00:31:54;27.20;1.00
56322;DHT22;42227;6.376;-10.782;2023-11-19T00:34:23;27.00;99.90
56322;DHT22;42227;6.376;-10.782;2023-11-19T00:36:52;26.90;99.90
56322;DHT22;42227;6.376;-10.782;2023-11-19T00:39:20;27.00;99.90
56322;DHT22;42227;6.376;-10.782;2023-11-19T00:41:49;27.30;99.90
56322;DHT22;42227;6.376;-10.782;2023-11-19T00:44:17;27.20;1.00
56322;DHT22;42227;6.376;-10.782;2023-11-19T00:46:46;27.10;1.00
56322;DHT22;42227;6.376;-10.782;2023-11-19T00:49:14;27.00;1.00
56322;DHT22;42227;6.376;-10.782;2023-11-19T00:51:44;27.00;99.90
56322;DHT22;42227;6.376;-10.782;2023-11-19T00:54:13;26.90;99.90
56322;DHT22;42227;6.376;-10.782;2023-11-19T00:56:41;26.90;99.90
56322;DHT22;42227;6.376;-10.782;2023-11-19T00:59:10;27.10;99.90
56322;DHT22;42227;6.376;-10.782;2023-11-19T01:01:39;27.20;98.70
56322;DHT22;42227;6.376;-10.782;2023-11-19T01:04:08;27.50;1.00
56322;DHT22;42227;6.376;-10.782;2023-11-19T01:06:37;27.40;99.90
56322;DHT22;42227;6.376;-10.782;2023-11-19T01:09:16;27.20;99.90
56322;DHT22;42227;6.376;-10.782;2023-11-19T01:11:44;27.20;1.00
56322;DHT22;42227;6.376;-10.782;2023-11-19T01:14:13;27.20;1.00
56322;DHT22;42227;6.376;-10.782;2023-11-19T01:16:42;27.20;61.20
56322;DHT22;42227;6.376;-10.782;2023-11-19T01:19:10;27.30;1.00
56322;DHT22;42227;6.376;-10.782;2023-11-19T01:21:45;27.30;1.00
56322;DHT22;42227;6.376;-10.782;2023-11-19T01:24:13;26.80;99.90
56322;DHT22;42227;6.376;-10.782;2023-11-19T01:26:42;26.60;99.90
56322;DHT22;42227;6.376;-10.782;2023-11-19T01:29:16;26.50;99.90
56322;DHT22;42227;6.376;-10.782;2023-11-19T01:31:46;26.50;1.00
56322;DHT22;42227;6.376;-10.782;2023-11-19T01:34:15;26.40;1.00
56322;DHT22;42227;6.376;-10.782;2023-11-19T01:36:43;26.60;99.90
56322;DHT22;42227;6.376;-10.782;2023-11-19T01:39:12;26.60;99.90
56322;DHT22;42227;6.376;-10.782;2023-11-19T01:41:40;26.80;99.90
56322;DHT22;42227;6.376;-10.782;2023-11-19T01:44:09;26.70;1.00
56322;DHT22;42227;6.376;-10.782;2023-11-19T01:46:38;26.50;94.50
56322;DHT22;42227;6.376;-10.782;2023-11-19T01:49:09;26.30;99.90
56322;DHT22;42227;6.376;-10.782;2023-11-19T01:51:39;26.20;99.90
56322;DHT22;42227;6.376;-10.782;2023-11-19T01:54:08;26.20;99.90
56322;DHT22;42227;6.376;-10.782;2023-11-19T01:56:39;26.40;99.90
56322;DHT22;42227;6.376;-10.782;2023-11-19T01:59:09;26.50;50.50
56322;DHT22;42227;6.376;-10.782;2023-11-19T02:01:38;26.40;98.20
56322;DHT22;42227;6.376;-10.782;2023-11-19T02:04:07;26.20;99.90
56322;DHT22;42227;6.376;-10.782;2023-11-19T02:06:40;26.10;99.90
56322;DHT22;42227;6.376;-10.782;2023-11-19T02:09:09;26.20;1.00
56322;DHT22;42227;6.376;-10.782;2023-11-19T02:11:40;26.20;99.90
56322;DHT22;42227;6.376;-10.782;2023-11-19T02:14:09;26.30;99.90
56322;DHT22;42227;6.376;-10.782;2023-11-19T02:16:37;26.40;99.90
56322;DHT22;42227;6.376;-10.782;2023-11-19T02:19:06;26.30;25.60
56322;DHT22;42227;6.376;-10.782;2023-11-19T02:21:35;26.30;90.30
56322;DHT22;42227;6.376;-10.782;2023-11-19T02:24:08;26.30;35.00
56322;DHT22;42227;6.376;-10.782;2023-11-19T02:26:52;26.10;99.90
56322;DHT22;42227;6.376;-10.782;2023-11-19T02:29:26;26.10;99.90
56322;DHT22;42227;6.376;-10.782;2023-11-19T02:31:55;26.10;99.90
56322;DHT22;42227;6.376;-10.782;2023-11-19T02:34:24;26.10;1.00
56322;DHT22;42227;6.376;-10.782;2023-11-19T02:36:53;26.10;1.00
56322;DHT22;42227;6.376;-10.782;2023-11-19T02:39:21;26.10;99.90
56322;DHT22;42227;6.376;-10.782;2023-11-19T02:41:50;25.90;99.90
56322;DHT22;42227;6.376;-10.782;2023-11-19T02:44:18;25.60;1.00
56322;DHT22;42227;6.376;-10.782;2023-11-19T02:46:47;25.20;1.00
56322;DHT22;42227;6.376;-10.782;2023-11-19T02:49:16;25.00;99.90
56322;DHT22;42227;6.376;-10.782;2023-11-19T02:51:45;24.70;1.00
56322;DHT22;42227;6.376;-10.782;2023-11-19T02:54:13;24.80;99.90
56322;DHT22;42227;6.376;-10.782;2023-11-19T02:56:44;25.10;1.00
56322;DHT22;42227;6.376;-10.782;2023-11-19T02:59:13;25.00;1.00
56322;DHT22;42227;6.376;-10.782;2023-11-19T03:01:42;24.70;99.90
56322;DHT22;42227;6.376;-10.782;2023-11-19T03:04:12;24.60;99.90
56322;DHT22;42227;6.376;-10.782;2023-11-19T03:06:42;24.50;99.90
56322;DHT22;42227;6.376;-10.782;2023-11-19T03:09:11;24.60;1.00
56322;DHT22;42227;6.376;-10.782;2023-11-19T03:11:40;24.40;99.90
56322;DHT22;42227;6.376;-10.782;2023-11-19T03:14:08;24.60;99.90
56322;DHT22;42227;6.376;-10.782;2023-11-19T03:16:37;24.40;99.90
56322;DHT22;42227;6.376;-10.782;2023-11-19T03:19:06;24.10;1.00
56322;DHT22;42227;6.376;-10.782;2023-11-19T03:21:37;24.10;99.90
56322;DHT22;42227;6.376;-10.782;2023-11-19T03:24:06;24.20;99.90
56322;DHT22;42227;6.376;-10.782;2023-11-19T03:26:35;24.20;7.80
56322;DHT22;42227;6.376;-10.782;2023-11-19T03:29:04;24.20;99.90
56322;DHT22;42227;6.376;-10.782;2023-11-19T03:31:32;24.70;1.00
56322;DHT22;42227;6.376;-10.782;2023-11-19T03:34:01;25.00;99.90
56322;DHT22;42227;6.376;-10.782;2023-11-19T03:36:33;24.50;96.80
56322;DHT22;42227;6.376;-10.782;2023-11-19T03:39:01;24.20;1.00
56322;DHT22;42227;6.376;-10.782;2023-11-19T03:41:30;24.00;99.90
56322;DHT22;42227;6.376;-10.782;2023-11-19T03:44:08;24.00;99.90
56322;DHT22;42227;6.376;-10.782;2023-11-19T03:46:37;24.00;99.90
56322;DHT22;42227;6.376;-10.782;2023-11-19T03:49:06;24.00;1.00
56322;DHT22;42227;6.376;-10.782;2023-11-19T03:51:35;24.30;19.70
56322;DHT22;42227;6.376;-10.782;2023-11-19T03:54:03;24.50;99.90
56322;DHT22;42227;6.376;-10.782;2023-11-19T03:56:32;24.60;1.00
56322;DHT22;42227;6.376;-10.782;2023-11-19T03:59:00;24.40;35.00
56322;DHT22;42227;6.376;-10.782;2023-11-19T04:01:29;24.10;1.00
56322;DHT22;42227;6.376;-10.782;2023-11-19T04:03:57;24.10;99.90
56322;DHT22;42227;6.376;-10.782;2023-11-19T04:06:26;24.00;99.90
56322;DHT22;42227;6.376;-10.782;2023-11-19T04:08:54;23.90;1.00
56322;DHT22;42227;6.376;-10.782;2023-11-19T04:11:23;24.00;34.80
56322;DHT22;42227;6.376;-10.782;2023-11-19T04:13:51;24.00;1.00
56322;DHT22;42227;6.376;-10.782;2023-11-19T04:16:25;24.20;1.00
56322;DHT22;42227;6.376;-10.782;2023-11-19T04:18:53;24.10;1.00
56322;DHT22;42227;6.376;-10.782;2023-11-19T04:21:23;23.90;99.90
56322;DHT22;42227;6.376;-10.782;2023-11-19T04:23:51;24.00;23.00
56322;DHT22;42227;6.376;-10.782;2023-11-19T04:26:20;24.00;1.00
56322;DHT22;42227;6.376;-10.782;2023-11-19T04:28:48;23.90;1.00
56322;DHT22;42227;6.376;-10.782;2023-11-19T04:31:20;24.00;7.50
56322;DHT22;42227;6.376;-10.782;2023-11-19T04:33:48;24.40;37.10
56322;DHT22;42227;6.376;-10.782;2023-11-19T04:36:19;24.50;1.00
56322;DHT22;42227;6.376;-10.782;2023-11-19T04:38:47;24.40;99.90
56322;DHT22;42227;6.376;-10.782;2023-11-19T04:41:16;24.30;99.90
56322;DHT22;42227;6.376;-10.782;2023-11-19T04:43:44;24.20;1.00
56322;DHT22;42227;6.376;-10.782;2023-11-19T04:46:13;24.10;1.00
56322;DHT22;42227;6.376;-10.782;2023-11-19T04:48:41;24.20;5.20
56322;DHT22;42227;6.376;-10.782;2023-11-19T04:51:10;24.40;1.00
56322;DHT22;42227;6.376;-10.782;2023-11-19T04:53:38;24.60;1.00
56322;DHT22;42227;6.376;-10.782;2023-11-19T04:56:10;24.70;99.90
56322;DHT22;42227;6.376;-10.782;2023-11-19T04:58:39;24.50;99.90
56322;DHT22;42227;6.376;-10.782;2023-11-19T05:01:14;24.30;1.00
56322;DHT22;42227;6.376;-10.782;2023-11-19T05:03:43;24.30;99.90
56322;DHT22;42227;6.376;-10.782;2023-11-19T05:06:12;24.20;99.90
56322;DHT22;42227;6.376;-10.782;2023-11-19T05:08:40;24.10;1.00
56322;DHT22;42227;6.376;-10.782;2023-11-19T05:11:09;24.20;1.00
56322;DHT22;42227;6.376;-10.782;2023-11-19T05:13:37;24.40;99.90
56322;DHT22;42227;6.376;-10.782;2023-11-19T05:16:06;24.70;99.90
56322;DHT22;42227;6.376;-10.782;2023-11-19T05:18:35;24.50;1.00
56322;DHT22;42227;6.376;-10.782;2023-11-19T05:21:03;24.40;1.00
56322;DHT22;42227;6.376;-10.782;2023-11-19T05:23:32;24.40;56.90
56322;DHT22;42227;6.376;-10.782;2023-11-19T05:26:01;24.40;99.90
56322;DHT22;42227;6.376;-10.782;2023-11-19T05:28:34;24.40;99.90
56322;DHT22;42227;6.376;-10.782;2023-11-19T05:31:02;24.20;99.90
56322;DHT22;42227;6.376;-10.782;2023-11-19T05:33:31;24.30;99.90
56322;DHT22;42227;6.376;-10.782;2023-11-19T05:35:59;24.50;1.00
56322;DHT22;42227;6.376;-10.782;2023-11-19T05:38:28;24.60;99.90
56322;DHT22;42227;6.376;-10.782;2023-11-19T05:40:56;24.40;1.00
56322;DHT22;42227;6.376;-10.782;2023-11-19T05:43:24;24.30;1.00
56322;DHT22;42227;6.376;-10.782;2023-11-19T05:45:53;24.30;99.90
56322;DHT22;42227;6.376;-10.782;2023-11-19T05:48:21;24.20;99.90
56322;DHT22;42227;6.376;-10.782;2023-11-19T05:50:50;24.30;99.90
56322;DHT22;42227;6.376;-10.782;2023-11-19T05:53:18;24.50;99.90
56322;DHT22;42227;6.376;-10.782;2023-11-19T05:55:47;24.70;99.90
56322;DHT22;42227;6.376;-10.782;2023-11-19T05:58:15;24.50;99.90
56322;DHT22;42227;6.376;-10.782;2023-11-19T06:00:43;24.40;99.90
56322;DHT22;42227;6.376;-10.782;2023-11-19T06:03:15;24.40;1.00
56322;DHT22;42227;6.376;-10.782;2023-11-19T06:05:46;24.20;98.10
56322;DHT22;42227;6.376;-10.782;2023-11-19T06:08:15;24.20;99.90
56322;DHT22;42227;6.376;-10.782;2023-11-19T06:10:44;24.20;99.90
56322;DHT22;42227;6.376;-10.782;2023-11-19T06:13:15;24.40;1.00
56322;DHT22;42227;6.376;-10.782;2023-11-19T06:15:44;24.50;76.50
56322;DHT22;42227;6.376;-10.782;2023-11-19T06:18:12;24.70;99.90
56322;DHT22;42227;6.376;-10.782;2023-11-19T06:20:41;24.50;99.90
56322;DHT22;42227;6.376;-10.782;2023-11-19T06:23:10;24.50;1.00
56322;DHT22;42227;6.376;-10.782;2023-11-19T06:25:39;24.40;1.00
56322;DHT22;42227;6.376;-10.782;2023-11-19T06:28:07;24.30;99.90
56322;DHT22;42227;6.376;-10.782;2023-11-19T06:30:35;24.30;99.90
56322;DHT22;42227;6.376;-10.782;2023-11-19T06:33:04;24.20;99.90
56322;DHT22;42227;6.376;-10.782;2023-11-19T06:35:32;24.40;99.90
56322;DHT22;42227;6.376;-10.782;2023-11-19T06:38:01;24.60;86.40
56322;DHT22;42227;6.376;-10.782;2023-11-19T06:40:30;24.60;99.90
56322;DHT22;42227;6.376;-10.782;2023-11-19T06:42:58;24.50;99.90
56322;DHT22;42227;6.376;-10.782;2023-11-19T06:45:26;24.50;1.00
56322;DHT22;42227;6.376;-10.782;2023-11-19T06:47:55;24.50;1.00
56322;DHT22;42227;6.376;-10.782;2023-11-19T06:50:23;24.40;1.00
56322;DHT22;42227;6.376;-10.782;2023-11-19T06:52:52;24.40;11.30
56322;DHT22;42227;6.376;-10.782;2023-11-19T06:55:20;24.50;99.90
56322;DHT22;42227;6.376;-10.782;2023-11-19T06:57:49;24.80;1.00
56322;DHT22;42227;6.376;-10.782;2023-11-19T07:00:17;25.00;99.90
56322;DHT22;42227;6.376;-10.782;2023-11-19T07:02:46;24.80;31.20
56322;DHT22;42227;6.376;-10.782;2023-11-19T07:05:14;24.70;99.90
56322;DHT22;42227;6.376;-10.782;2023-11-19T07:07:43;24.60;99.90
56322;DHT22;42227;6.376;-10.782;2023-11-19T07:10:11;24.50;7.10
56322;DHT22;42227;6.376;-10.782;2023-11-19T07:12:40;24.60;1.00
56322;DHT22;42227;6.376;-10.782;2023-11-19T07:15:08;24.50;1.00
56322;DHT22;42227;6.376;-10.782;2023-11-19T07:17:39;24.70;95.60
56322;DHT22;42227;6.376;-10.782;2023-11-19T07:20:08;24.90;1.00
56322;DHT22;42227;6.376;-10.782;2023-11-19T07:22:37;25.10;24.10
56322;DHT22;42227;6.376;-10.782;2023-11-19T07:25:05;25.10;99.90
56322;DHT22;42227;6.376;-10.782;2023-11-19T07:27:34;24.90;1.00
56322;DHT22;42227;6.376;-10.782;2023-11-19T07:30:02;24.80;7.60
56322;DHT22;42227;6.376;-10.782;2023-11-19T07:32:31;24.70;99.90
56322;DHT22;42227;6.376;-10.782;2023-11-19T07:34:59;24.60;99.90
56322;DHT22;42227;6.376;-10.782;2023-11-19T07:37:27;24.50;1.00
56322;DHT22;42227;6.376;-10.782;2023-11-19T07:39:56;24.60;1.00
56322;DHT22;42227;6.376;-10.782;2023-11-19T07:42:24;25.10;98.80
56322;DHT22;42227;6.376;-10.782;2023-11-19T07:44:53;24.90;1.00
56322;DHT22;42227;6.376;-10.782;2023-11-19T07:47:21;24.80;1.00
56322;DHT22;42227;6.376;-10.782;2023-11-19T07:49:50;24.80;99.90
56322;DHT22;42227;6.376;-10.782;2023-11-19T07:52:19;24.90;99.90
56322;DHT22;42227;6.376;-10.782;2023-11-19T07:54:49;24.80;99.90
56322;DHT22;42227;6.376;-10.782;2023-11-19T07:57:17;24.70;99.90
56322;DHT22;42227;6.376;-10.782;2023-11-19T07:59:47;24.80;99.90
56322;DHT22;42227;6.376;-10.782;2023-11-19T08:02:15;25.00;99.90
56322;DHT22;42227;6.376;-10.782;2023-11-19T08:04:45;24.90;99.90
56322;DHT22;42227;6.376;-10.782;2023-11-19T08:07:13;24.90;99.90
56322;DHT22;42227;6.376;-10.782;2023-11-19T08:09:42;24.80;99.90
56322;DHT22;42227;6.376;-10.782;2023-11-19T08:12:10;25.00;1.00
56322;DHT22;42227;6.376;-10.782;2023-11-19T08:14:39;24.80;99.90
56322;DHT22;42227;6.376;-10.782;2023-11-19T08:17:07;24.90;1.00
56322;DHT22;42227;6.376;-10.782;2023-11-19T08:19:36;24.90;1.00
56322;DHT22;42227;6.376;-10.782;2023-11-19T08:22:04;25.00;99.90
56322;DHT22;42227;6.376;-10.782;2023-11-19T08:24:32;25.00;99.90
56322;DHT22;42227;6.376;-10.782;2023-11-19T08:27:01;24.90;56.10
56322;DHT22;42227;6.376;-10.782;2023-11-19T08:29:30;25.00;99.90
56322;DHT22;42227;6.376;-10.782;2023-11-19T08:32:00;25.20;99.90
56322;DHT22;42227;6.376;-10.782;2023-11-19T08:34:30;25.20;94.50
56322;DHT22;42227;6.376;-10.782;2023-11-19T08:36:59;25.40;4.20
56322;DHT22;42227;6.376;-10.782;2023-11-19T08:39:27;25.50;1.00
56322;DHT22;42227;6.376;-10.782;2023-11-19T08:41:55;25.50;91.60
56322;DHT22;42227;6.376;-10.782;2023-11-19T08:44:24;25.50;1.00
56322;DHT22;42227;6.376;-10.782;2023-11-19T08:46:54;25.70;99.90
56322;DHT22;42227;6.376;-10.782;2023-11-19T08:49:23;25.50;99.90
56322;DHT22;42227;6.376;-10.782;2023-11-19T08:51:51;25.40;1.00
56322;DHT22;42227;6.376;-10.782;2023-11-19T08:54:19;25.40;1.00
56322;DHT22;42227;6.376;-10.782;2023-11-19T08:56:48;25.50;1.00
56322;DHT22;42227;6.376;-10.782;2023-11-19T08:59:16;25.60;99.90
56322;DHT22;42227;6.376;-10.782;2023-11-19T09:01:45;25.90;99.90
56322;DHT22;42227;6.376;-10.782;2023-11-19T09:04:13;26.00;99.90
56322;DHT22;42227;6.376;-10.782;2023-11-19T09:06:42;26.50;1.00
56322;DHT22;42227;6.376;-10.782;2023-11-19T09:09:11;26.80;99.90
56322;DHT22;42227;6.376;-10.782;2023-11-19T09:11:39;26.60;99.90
56322;DHT22;42227;6.376;-10.782;2023-11-19T09:14:08;26.60;99.90
56322;DHT22;42227;6.376;-10.782;2023-11-19T09:16:36;26.30;99.90
56322;DHT22;42227;6.376;-10.782;2023-11-19T09:19:05;26.40;99.90
56322;DHT22;42227;6.376;-10.782;2023-11-19T09:21:33;26.40;99.90
56322;DHT22;42227;6.376;-10.782;2023-11-19T09:24:02;26.70;99.90
56322;DHT22;42227;6.376;-10.782;2023-11-19T09:26:31;26.60;99.90
56322;DHT22;42227;6.376;-10.782;2023-11-19T09:29:01;26.90;99.90
56322;DHT22;42227;6.376;-10.782;2023-11-19T09:31:31;26.60;99.90
56322;DHT22;42227;6.376;-10.782;2023-11-19T09:34:01;26.80;99.90
56322;DHT22;42227;6.376;-10.782;2023-11-19T09:36:35;26.90;99.90
56322;DHT22;42227;6.376;-10.782;2023-11-19T09:39:14;27.30;1.00
56322;DHT22;42227;6.376;-10.782;2023-11-19T09:41:50;27.40;1.00
56322;DHT22;42227;6.376;-10.782;2023-11-19T09:44:19;27.40;1.00
56322;DHT22;42227;6.376;-10.782;2023-11-19T09:46:57;27.60;1.00
56322;DHT22;42227;6.376;-10.782;2023-11-19T09:49:27;27.80;1.00
56322;DHT22;42227;6.376;-10.782;2023-11-19T09:51:58;27.90;99.90
56322;DHT22;42227;6.376;-10.782;2023-11-19T09:54:27;27.80;99.90
56322;DHT22;42227;6.376;-10.782;2023-11-19T09:56:57;28.30;1.00
56322;DHT22;42227;6.376;-10.782;2023-11-19T09:59:26;28.90;99.90
56322;DHT22;42227;6.376;-10.782;2023-11-19T10:01:56;29.00;99.90
56322;DHT22;42227;6.376;-10.782;2023-11-19T10:04:25;28.60;99.90
56322;DHT22;42227;6.376;-10.782;2023-11-19T10:06:56;28.80;99.90
56322;DHT22;42227;6.376;-10.782;2023-11-19T10:09:25;28.50;99.90
56322;DHT22;42227;6.376;-10.782;2023-11-19T10:11:53;28.90;92.50
56322;DHT22;42227;6.376;-10.782;2023-11-19T10:14:23;29.30;87.30
56322;DHT22;42227;6.376;-10.782;2023-11-19T10:16:52;29.40;14.70
56322;DHT22;42227;6.376;-10.782;2023-11-19T10:19:22;29.20;1.00
56322;DHT22;42227;6.376;-10.782;2023-11-19T10:21:51;29.90;18.10
56322;DHT22;42227;6.376;-10.782;2023-11-19T10:24:33;30.00;1.00
56322;DHT22;42227;6.376;-10.782;2023-11-19T10:27:08;29.60;1.00
56322;DHT22;42227;6.376;-10.782;2023-11-19T10:29:37;29.00;1.00
56322;DHT22;42227;6.376;-10.782;2023-11-19T10:32:06;29.00;1.00
56322;DHT22;42227;6.376;-10.782;2023-11-19T10:35:05;28.80;1.00
56322;DHT22;42227;6.376;-10.782;2023-11-19T10:37:34;29.30;1.00
56322;DHT22;42227;6.376;-10.782;2023-11-19T10:40:02;29.40;1.00
56322;DHT22;42227;6.376;-10.782;2023-11-19T10:42:31;29.90;1.00
56322;DHT22;42227;6.376;-10.782;2023-11-19T10:45:00;29.50;1.00
56322;DHT22;42227;6.376;-10.782;2023-11-19T10:47:29;29.30;1.00
56322;DHT22;42227;6.376;-10.782;2023-11-19T10:50:01;29.70;1.00
56322;DHT22;42227;6.376;-10.782;2023-11-19T10:52:29;30.00;1.00
56322;DHT22;42227;6.376;-10.782;2023-11-19T10:55:00;30.10;1.00
56322;DHT22;42227;6.376;-10.782;2023-11-19T10:57:30;30.70;1.00
56322;DHT22;42227;6.376;-10.782;2023-11-19T11:00:02;31.00;1.00
56322;DHT22;42227;6.376;-10.782;2023-11-19T11:02:34;31.00;99.90
56322;DHT22;42227;6.376;-10.782;2023-11-19T11:05:05;30.60;99.90
56322;DHT22;42227;6.376;-10.782;2023-11-19T11:07:34;30.90;1.00
56322;DHT22;42227;6.376;-10.782;2023-11-19T11:10:08;30.90;1.00
56322;DHT22;42227;6.376;-10.782;2023-11-19T11:12:38;30.80;99.90
56322;DHT22;42227;6.376;-10.782;2023-11-19T11:15:07;30.80;1.00
56322;DHT22;42227;6.376;-10.782;2023-11-19T11:17:36;31.30;1.00
56322;DHT22;42227;6.376;-10.782;2023-11-19T11:20:08;31.40;99.90
56322;DHT22;42227;6.376;-10.782;2023-11-19T11:29:20;31.20;99.90
56322;DHT22;42227;6.376;-10.782;2023-11-19T11:34:42;31.50;99.90
56322;DHT22;42227;6.376;-10.782;2023-11-19T11:40:02;31.50;99.90
56322;DHT22;42227;6.376;-10.782;2023-11-19T11:42:31;31.50;99.90
56322;DHT22;42227;6.376;-10.782;2023-11-19T11:45:13;31.90;99.90
56322;DHT22;42227;6.376;-10.782;2023-11-19T11:50:12;32.20;99.90
56322;DHT22;42227;6.376;-10.782;2023-11-19T11:55:34;32.00;99.90
56322;DHT22;42227;6.376;-10.782;2023-11-19T11:58:03;32.00;99.90
56322;DHT22;42227;6.376;-10.782;2023-11-19T12:00:40;32.60;99.90
56322;DHT22;42227;6.376;-10.782;2023-11-19T12:03:09;32.30;99.90
56322;DHT22;42227;6.376;-10.782;2023-11-19T12:05:45;32.30;99.90
56322;DHT22;42227;6.376;-10.782;2023-11-19T12:08:19;32.40;99.90
56322;DHT22;42227;6.376;-10.782;2023-11-19T12:10:57;32.20;99.90
56322;DHT22;42227;6.376;-10.782;2023-11-19T12:13:46;32.00;99.90
56322;DHT22;42227;6.376;-10.782;2023-11-19T12:16:15;32.10;99.90
56322;DHT22;42227;6.376;-10.782;2023-11-19T12:18:43;32.20;99.90
56322;DHT22;42227;6.376;-10.782;2023-11-19T12:21:30;32.40;99.90
56322;DHT22;42227;6.376;-10.782;2023-11-19T12:23:59;32.40;99.90
56322;DHT22;42227;6.376;-10.782;2023-11-19T12:26:38;32.30;99.90
56322;DHT22;42227;6.376;-10.782;2023-11-19T12:29:06;32.30;99.90
56322;DHT22;42227;6.376;-10.782;2023-11-19T12:31:37;32.10;99.90
56322;DHT22;42227;6.376;-10.782;2023-11-19T12:34:06;31.80;99.90
56322;DHT22;42227;6.376;-10.782;2023-11-19T12:36:35;31.80;99.90
56322;DHT22;42227;6.376;-10.782;2023-11-19T12:39:03;31.70;99.90
56322;DHT22;42227;6.376;-10.782;2023-11-19T12:41:32;31.60;99.90
56322;DHT22;42227;6.376;-10.782;2023-11-19T12:44:10;32.00;99.90
56322;DHT22;42227;6.376;-10.782;2023-11-19T12:46:38;32.10;99.90
56322;DHT22;42227;6.376;-10.782;2023-11-19T12:49:07;32.20;99.90
56322;DHT22;42227;6.376;-10.782;2023-11-19T12:51:35;32.10;99.90
56322;DHT22;42227;6.376;-10.782;2023-11-19T12:54:04;31.90;99.90
56322;DHT22;42227;6.376;-10.782;2023-11-19T12:56:33;31.90;99.90
56322;DHT22;42227;6.376;-10.782;2023-11-19T12:59:11;32.00;99.90
56322;DHT22;42227;6.376;-10.782;2023-11-19T13:01:39;32.10;99.90
56322;DHT22;42227;6.376;-10.782;2023-11-19T13:04:18;31.90;99.90
56322;DHT22;42227;6.376;-10.782;2023-11-19T13:06:47;31.70;99.90
56322;DHT22;42227;6.376;-10.782;2023-11-19T13:09:32;32.10;99.90
56322;DHT22;42227;6.376;-10.782;2023-11-19T13:12:12;31.90;99.90
56322;DHT22;42227;6.376;-10.782;2023-11-19T13:14:41;32.10;99.90
56322;DHT22;42227;6.376;-10.782;2023-11-19T13:17:13;32.00;99.90
56322;DHT22;42227;6.376;-10.782;2023-11-19T13:19:41;32.20;99.90
56322;DHT22;42227;6.376;-10.782;2023-11-19T13:22:10;32.60;99.90
56322;DHT22;42227;6.376;-10.782;2023-11-19T13:24:39;33.00;99.90
56322;DHT22;42227;6.376;-10.782;2023-11-19T13:27:07;33.00;99.90
56322;DHT22;42227;6.376;-10.782;2023-11-19T13:29:35;32.80;99.90
56322;DHT22;42227;6.376;-10.782;2023-11-19T13:32:04;32.50;99.90
56322;DHT22;42227;6.376;-10.782;2023-11-19T13:34:33;32.20;99.90
56322;DHT22;42227;6.376;-10.782;2023-11-19T13:37:01;32.00;99.90
56322;DHT22;42227;6.376;-10.782;2023-11-19T13:39:29;31.60;99.90
56322;DHT22;42227;6.376;-10.782;2023-11-19T13:41:58;31.40;99.90
56322;DHT22;42227;6.376;-10.782;2023-11-19T13:44:29;31.60;99.90
56322;DHT22;42227;6.376;-10.782;2023-11-19T13:46:58;31.60;99.90
56322;DHT22;42227;6.376;-10.782;2023-11-19T13:49:26;31.80;99.90
56322;DHT22;42227;6.376;-10.782;2023-11-19T13:51:55;32.00;99.90
56322;DHT22;42227;6.376;-10.782;2023-11-19T13:54:23;32.10;99.90
56322;DHT22;42227;6.376;-10.782;2023-11-19T13:56:55;32.20;99.90
56322;DHT22;42227;6.376;-10.782;2023-11-19T13:59:24;32.10;99.90
56322;DHT22;42227;6.376;-10.782;2023-11-19T14:01:52;31.70;99.90
56322;DHT22;42227;6.376;-10.782;2023-11-19T14:04:21;31.40;99.90
56322;DHT22;42227;6.376;-10.782;2023-11-19T14:06:50;31.30;99.90
56322;DHT22;42227;6.376;-10.782;2023-11-19T14:09:19;31.30;99.90
56322;DHT22;42227;6.376;-10.782;2023-11-19T14:11:47;31.00;99.90
56322;DHT22;42227;6.376;-10.782;2023-11-19T14:14:16;30.90;99.90
56322;DHT22;42227;6.376;-10.782;2023-11-19T14:16:44;31.20;99.90
56322;DHT22;42227;6.376;-10.782;2023-11-19T14:19:13;31.10;99.90
56322;DHT22;42227;6.376;-10.782;2023-11-19T14:21:41;31.30;99.90
56322;DHT22;42227;6.376;-10.782;2023-11-19T14:24:10;31.70;99.90
56322;DHT22;42227;6.376;-10.782;2023-11-19T14:26:38;32.20;99.90
56322;DHT22;42227;6.376;-10.782;2023-11-19T14:29:06;32.30;99.90
56322;DHT22;42227;6.376;-10.782;2023-11-19T14:31:36;32.60;99.90
56322;DHT22;42227;6.376;-10.782;2023-11-19T14:34:04;32.40;99.90
56322;DHT22;42227;6.376;-10.782;2023-11-19T14:36:33;32.40;99.90
56322;DHT22;42227;6.376;-10.782;2023-11-19T14:39:01;32.50;99.90
56322;DHT22;42227;6.376;-10.782;2023-11-19T14:41:30;32.70;99.90
56322;DHT22;42227;6.376;-10.782;2023-11-19T14:43:58;32.80;99.90
56322;DHT22;42227;6.376;-10.782;2023-11-19T14:46:27;32.60;99.90
56322;DHT22;42227;6.376;-10.782;2023-11-19T14:48:56;32.60;99.90
56322;DHT22;42227;6.376;-10.782;2023-11-19T14:51:24;32.80;99.90
56322;DHT22;42227;6.376;-10.782;2023-11-19T14:53:53;32.80;99.90
56322;DHT22;42227;6.376;-10.782;2023-11-19T14:56:21;32.20;99.90
56322;DHT22;42227;6.376;-10.782;2023-11-19T14:58:49;32.00;99.90
56322;DHT22;42227;6.376;-10.782;2023-11-19T15:01:18;32.10;99.90
56322;DHT22;42227;6.376;-10.782;2023-11-19T15:03:47;32.20;99.90
56322;DHT22;42227;6.376;-10.782;2023-11-19T15:06:18;32.40;99.90
56322;DHT22;42227;6.376;-10.782;2023-11-19T15:08:51;32.60;99.90
56322;DHT22;42227;6.376;-10.782;2023-11-19T15:11:20;32.60;99.90
56322;DHT22;42227;6.376;-10.782;2023-11-19T15:13:48;32.20;99.90
56322;DHT22;42227;6.376;-10.782;2023-11-19T15:16:17;31.90;99.90
56322;DHT22;42227;6.376;-10.782;2023-11-19T15:18:46;31.60;99.90
56322;DHT22;42227;6.376;-10.782;2023-11-19T15:21:14;31.20;99.90
56322;DHT22;42227;6.376;-10.782;2023-11-19T15:23:43;31.00;99.90
56322;DHT22;42227;6.376;-10.782;2023-11-19T15:26:12;30.90;99.90
56322;DHT22;42227;6.376;-10.782;2023-11-19T15:28:40;31.00;99.90
56322;DHT22;42227;6.376;-10.782;2023-11-19T15:31:09;31.00;99.90
56322;DHT22;42227;6.376;-10.782;2023-11-19T15:33:37;31.10;99.90
56322;DHT22;42227;6.376;-10.782;2023-11-19T15:36:06;30.90;99.90
56322;DHT22;42227;6.376;-10.782;2023-11-19T15:38:35;30.80;99.90
56322;DHT22;42227;6.376;-10.782;2023-11-19T15:41:20;30.70;1.00
56322;DHT22;42227;6.376;-10.782;2023-11-19T15:43:51;30.60;1.00
56322;DHT22;42227;6.376;-10.782;2023-11-19T15:46:20;30.70;1.00
56322;DHT22;42227;6.376;-10.782;2023-11-19T15:48:48;30.80;99.90
56322;DHT22;42227;6.376;-10.782;2023-11-19T15:51:17;31.00;99.90
56322;DHT22;42227;6.376;-10.782;2023-11-19T15:53:45;30.70;99.90